Terminal Aerodrome Forecast
Issued by NWS

Home | Current Version | Previous Version | Text Only | Print | Product List | Glossary On
Versions: 1 2 3 4 5 6 7 8 9 10 11 12 13 14 15 16
000
FTUS44 KBMX 251700
TAFEET
TAF
KEET 251739Z 2518/2618 18010KT P6SM SKC
     FM252000 21010G17KT P6SM SCT045 SCT120
     FM260300 28007KT 6SM -RA BR SCT025 OVC050
     FM260900 30009KT 6SM BR OVC025=

USA.gov is the U.S. government's official web portal to all federal, state and local government web resources and services.